Time,TemperatureC,DewpointC,PressurehPa,WindDirection,WindDirectionDegrees,WindSpeedKMH,WindSpeedGustKMH,Humidity,HourlyPrecipMM,Conditions,Clouds,dailyrainMM,SolarRadiationWatts/m^2,UVIndex,SoftwareType,DateUTC
2024-06-13 00:00:05,20.1,14.4,1013.2,NW,319,0,3.2,70,0.0,,,0.5,0,0,n/a,2024-06-12T22:00:05Z
2024-06-13 00:05:05,19.9,14.4,1013.2,NW,319,0,3.2,71,0.0,,,0.0,0,0,n/a,2024-06-12T22:05:05Z
2024-06-13 00:10:05,19.8,14.4,1013.2,NW,319,0,1.6,71,0.0,,,0.0,0,0,n/a,2024-06-12T22:10:05Z
2024-06-13 00:15:05,19.9,14.4,1013.2,NW,319,0,1.6,71,0.0,,,0.0,0,0,n/a,2024-06-12T22:15:05Z
2024-06-13 00:20:05,19.8,14.4,1013.2,NW,319,0,1.6,71,0.0,,,0.0,0,0,n/a,2024-06-12T22:20:05Z
2024-06-13 00:25:05,19.7,14.3,1013.2,NW,319,0,1.6,71,0.0,,,0.0,0,0,n/a,2024-06-12T22:25:05Z
2024-06-13 00:30:05,19.7,14.2,1013.2,NW,319,0,3.2,71,0.0,,,0.0,0,0,n/a,2024-06-12T22:30:05Z
2024-06-13 00:35:05,19.6,14.4,1013.2,NW,319,0,1.6,72,0.0,,,0.0,0,0,n/a,2024-06-12T22:35:05Z
2024-06-13 00:40:05,19.6,14.4,1013.2,NW,319,0,0,72,0.0,,,0.0,0,0,n/a,2024-06-12T22:40:05Z
2024-06-13 00:45:05,19.6,14.4,1013.2,NW,319,0,0,72,0.0,,,0.0,0,0,n/a,2024-06-12T22:45:05Z
2024-06-13 00:50:05,19.6,14.4,1013.2,NW,319,0,1.6,72,0.0,,,0.0,0,0,n/a,2024-06-12T22:50:05Z
2024-06-13 00:55:05,19.6,14.4,1013.2,NW,319,0,0,72,0.0,,,0.0,0,0,n/a,2024-06-12T22:55:05Z
2024-06-13 01:00:05,19.6,14.3,1013.2,NW,319,0,0,72,0.0,,,0.0,0,0,n/a,2024-06-12T23:00:05Z
2024-06-13 01:05:05,19.6,14.3,1013.2,NW,319,1.6,3.2,72,0.0,,,0.0,0,0,n/a,2024-06-12T23:05:05Z
2024-06-13 01:10:04,19.6,14.3,1013.2,NW,319,0,3.2,72,0.0,,,0.0,0,0,n/a,2024-06-12T23:10:04Z
2024-06-13 01:15:04,19.5,14.3,1013.2,NW,319,0,1.6,72,0.0,,,0.0,0,0,n/a,2024-06-12T23:15:04Z
2024-06-13 01:20:04,19.5,14.3,1013.2,NW,319,0,1.6,72,0.0,,,0.0,0,0,n/a,2024-06-12T23:20:04Z
2024-06-13 01:25:04,19.4,14.2,1013.2,NW,320,1.6,3.2,72,0.0,,,0.0,0,0,n/a,2024-06-12T23:25:04Z
2024-06-13 01:30:04,19.4,14.2,1013.2,NW,320,0,1.6,72,0.0,,,0.0,0,0,n/a,2024-06-12T23:30:04Z
2024-06-13 01:35:04,19.4,14.2,1013.2,NW,320,0,0,72,0.0,,,0.0,0,0,n/a,2024-06-12T23:35:04Z
2024-06-13 01:40:04,19.4,14.2,1012.9,NW,320,0,0,72,0.0,,,0.0,0,0,n/a,2024-06-12T23:40:04Z
2024-06-13 01:45:04,19.3,14.1,1012.9,NW,320,0,1.6,72,0.0,,,0.0,0,0,n/a,2024-06-12T23:45:04Z
2024-06-13 01:50:04,19.3,14.1,1013.2,NW,320,0,1.6,72,0.0,,,0.0,0,0,n/a,2024-06-12T23:50:04Z
2024-06-13 01:55:04,19.3,14.1,1012.9,NW,320,0,1.6,72,0.0,,,0.0,0,0,n/a,2024-06-12T23:55:04Z
2024-06-13 02:00:04,19.4,14.2,1012.9,NW,320,0,3.2,72,0.0,,,0.0,0,0,n/a,2024-06-13T00:00:04Z
2024-06-13 02:05:04,19.3,14.1,1012.9,NW,320,0,3.2,72,0.0,,,0.0,0,0,n/a,2024-06-13T00:05:04Z
2024-06-13 02:10:04,19.3,14.1,1012.9,NW,320,0,1.6,72,0.0,,,0.0,0,0,n/a,2024-06-13T00:10:04Z
2024-06-13 02:15:04,19.2,14,1012.9,NW,320,0,1.6,72,0.0,,,0.0,0,0,n/a,2024-06-13T00:15:04Z
2024-06-13 02:20:04,19.2,13.9,1012.9,NW,320,0,0,72,0.0,,,0.0,0,0,n/a,2024-06-13T00:20:04Z
2024-06-13 02:25:04,19.2,14.2,1012.9,NW,320,0,0,73,0.0,,,0.0,0,0,n/a,2024-06-13T00:25:04Z
2024-06-13 02:30:04,19.2,14.2,1012.9,NW,320,0,0,73,0.0,,,0.0,0,0,n/a,2024-06-13T00:30:04Z
2024-06-13 02:35:04,19.2,14.2,1012.9,NW,320,0,0,73,0.0,,,0.0,0,0,n/a,2024-06-13T00:35:04Z
2024-06-13 02:40:04,19.2,14.2,1012.9,NW,320,0,0,73,0.0,,,0.0,0,0,n/a,2024-06-13T00:40:04Z
2024-06-13 02:45:04,19.2,14.2,1012.9,NW,320,0,0,73,0.0,,,0.0,0,0,n/a,2024-06-13T00:45:04Z
2024-06-13 02:50:04,19.2,14.2,1012.9,NW,320,0,1.6,73,0.0,,,0.0,0,0,n/a,2024-06-13T00:50:04Z
2024-06-13 02:55:04,19.1,14.1,1012.9,NW,320,1.6,3.2,73,0.0,,,0.0,0,0,n/a,2024-06-13T00:55:04Z
2024-06-13 03:00:04,19,14,1012.9,NW,320,0,3.2,73,0.0,,,0.0,0,0,n/a,2024-06-13T01:00:04Z
2024-06-13 03:05:04,18.9,13.9,1012.9,NW,320,0,1.6,73,0.0,,,0.0,0,0,n/a,2024-06-13T01:05:04Z
2024-06-13 03:10:04,18.8,13.8,1012.9,NW,320,0,0,73,0.0,,,0.0,0,0,n/a,2024-06-13T01:10:04Z
2024-06-13 03:15:04,18.8,13.8,1012.9,NW,320,0,1.6,73,0.0,,,0.0,0,0,n/a,2024-06-13T01:15:04Z
2024-06-13 03:20:04,18.8,13.8,1012.9,NW,320,0,1.6,73,0.0,,,0.0,0,0,n/a,2024-06-13T01:20:04Z
2024-06-13 03:25:05,18.8,13.8,1012.9,NW,320,0,0,73,0.0,,,0.0,0,0,n/a,2024-06-13T01:25:05Z
2024-06-13 03:30:04,18.8,13.8,1012.9,NW,320,0,0,73,0.0,,,0.0,0,0,n/a,2024-06-13T01:30:04Z
2024-06-13 03:35:05,18.8,13.8,1012.9,NW,320,0,0,73,0.0,,,0.0,0,0,n/a,2024-06-13T01:35:05Z
2024-06-13 03:40:05,18.7,13.8,1012.9,NW,320,0,0,73,0.0,,,0.0,0,0,n/a,2024-06-13T01:40:05Z
2024-06-13 03:45:04,18.7,13.8,1012.9,NW,320,0,0,73,0.0,,,0.0,0,0,n/a,2024-06-13T01:45:04Z
2024-06-13 03:50:05,18.7,13.9,1012.9,NW,320,0,0,74,0.0,,,0.0,0,0,n/a,2024-06-13T01:50:05Z
2024-06-13 03:55:05,18.7,13.9,1012.9,NW,320,0,0,74,0.0,,,0.0,0,0,n/a,2024-06-13T01:55:05Z
2024-06-13 04:00:04,18.7,13.9,1012.9,NW,320,0,0,74,0.0,,,0.0,0,0,n/a,2024-06-13T02:00:04Z
2024-06-13 04:05:05,18.8,14.2,1012.9,NW,320,0,0,75,0.0,,,0.0,0,0,n/a,2024-06-13T02:05:05Z
2024-06-13 04:10:05,18.7,13.9,1012.9,NW,320,0,0,74,0.0,,,0.0,0,0,n/a,2024-06-13T02:10:05Z
2024-06-13 04:15:05,18.7,13.9,1012.9,NW,320,0,0,74,0.0,,,0.0,0,0,n/a,2024-06-13T02:15:05Z
2024-06-13 04:20:05,18.7,13.9,1012.5,NW,320,0,0,74,0.0,,,0.0,0,0,n/a,2024-06-13T02:20:05Z
2024-06-13 04:25:05,18.5,13.9,1012.9,NW,320,0,0,75,0.0,,,0.0,0,0,n/a,2024-06-13T02:25:05Z
2024-06-13 04:30:05,18.4,13.9,1012.9,NW,320,0,0,75,0.0,,,0.0,0,0,n/a,2024-06-13T02:30:05Z
2024-06-13 04:35:05,18.4,13.8,1012.5,NW,320,0,0,75,0.0,,,0.0,0,0,n/a,2024-06-13T02:35:05Z
2024-06-13 04:40:05,18.3,13.8,1012.5,NW,320,0,0,75,0.0,,,0.0,0,0,n/a,2024-06-13T02:40:05Z
2024-06-13 04:45:05,18.2,13.9,1012.9,NW,320,0,0,76,0.0,,,0.0,0,0,n/a,2024-06-13T02:45:05Z
2024-06-13 04:50:05,18.3,13.9,1012.9,NW,320,0,0,76,0.0,,,0.0,0,0,n/a,2024-06-13T02:50:05Z
2024-06-13 04:55:05,18.3,13.9,1012.9,NW,320,0,0,76,0.0,,,0.0,0,0,n/a,2024-06-13T02:55:05Z
2024-06-13 05:00:05,18.3,13.9,1012.9,NW,320,0,0,76,0.0,,,0.0,0,0,n/a,2024-06-13T03:00:05Z
2024-06-13 05:05:05,18.3,13.9,1012.9,NW,320,0,0,76,0.0,,,0.0,0,0,n/a,2024-06-13T03:05:05Z
2024-06-13 05:10:05,18.2,13.9,1012.9,NW,320,0,0,76,0.0,,,0.0,0,0,n/a,2024-06-13T03:10:05Z
2024-06-13 05:20:05,18.1,14,1012.9,NW,323,0,0,77,0.0,,,0.0,0,0,n/a,2024-06-13T03:20:05Z
2024-06-13 05:25:05,18.1,14,1012.9,NW,323,0,0,77,0.0,,,0.0,0,0,n/a,2024-06-13T03:25:05Z
2024-06-13 05:30:05,18.2,14.1,1012.9,NW,323,0,0,77,0.0,,,0.0,0,0,n/a,2024-06-13T03:30:05Z
2024-06-13 05:35:05,18.2,14.1,1012.9,NW,323,0,0,77,0.0,,,0.0,0,0,n/a,2024-06-13T03:35:05Z
2024-06-13 05:40:05,18.2,14.1,1012.9,NW,323,0,0,77,0.0,,,0.0,5,0,n/a,2024-06-13T03:40:05Z
2024-06-13 05:45:05,18.2,14.1,1012.9,NW,323,0,0,77,0.0,,,0.0,9,0,n/a,2024-06-13T03:45:05Z
2024-06-13 05:50:05,17.9,13.9,1012.9,NNE,13,0,0,78,0.0,,,0.0,16,0,n/a,2024-06-13T03:50:05Z
2024-06-13 05:55:05,17.7,13.9,1012.9,NNE,16,0,0,79,0.0,,,0.0,30,0,n/a,2024-06-13T03:55:05Z
2024-06-13 06:00:05,17.5,14,1012.9,NNE,23,0,0,80,0.0,,,0.0,51,0,n/a,2024-06-13T04:00:05Z
2024-06-13 06:05:05,17.4,13.9,1012.9,NNE,23,0,0,80,0.0,,,0.0,90,0,n/a,2024-06-13T04:05:05Z
2024-06-13 06:10:04,17.6,14.1,1013.2,NNE,23,0,0,80,0.0,,,0.0,90,0,n/a,2024-06-13T04:10:04Z
2024-06-13 06:15:04,17.7,14.2,1013.2,NNE,24,0,0,80,0.0,,,0.0,56,0,n/a,2024-06-13T04:15:04Z
2024-06-13 06:20:04,17.7,14.2,1013.2,NNE,26,0,0,80,0.5,,,0.5,30,0,n/a,2024-06-13T04:20:04Z
2024-06-13 06:25:04,17.6,14.4,1012.9,East,81,3.2,6.4,82,0.8,,,0.8,16,0,n/a,2024-06-13T04:25:04Z
2024-06-13 06:30:04,17.4,14.6,1012.9,East,88,4.8,9.7,84,1.0,,,1.0,21,0,n/a,2024-06-13T04:30:04Z
2024-06-13 06:35:04,17.3,14.8,1012.9,SE,129,3.2,6.4,85,1.0,,,1.0,32,0,n/a,2024-06-13T04:35:04Z
2024-06-13 06:40:04,17.3,14.7,1012.9,SE,141,1.6,6.4,85,1.0,,,1.0,53,0,n/a,2024-06-13T04:40:04Z
2024-06-13 06:45:04,17.2,14.7,1012.9,SE,141,1.6,4.8,85,1.0,,,1.0,47,0,n/a,2024-06-13T04:45:04Z
2024-06-13 06:50:04,17.3,14.9,1012.9,SE,141,1.6,4.8,86,1.0,,,1.0,67,0,n/a,2024-06-13T04:50:04Z
2024-06-13 06:55:05,17.3,14.9,1012.9,SSE,155,1.6,6.4,86,1.0,,,1.0,51,0,n/a,2024-06-13T04:55:05Z
2024-06-13 07:00:04,17.3,14.9,1013.2,SSE,155,3.2,4.8,86,1.0,,,1.0,51,0,n/a,2024-06-13T05:00:04Z
2024-06-13 07:05:04,17.5,15.1,1013.2,SSE,155,0,3.2,86,1.0,,,1.0,88,0,n/a,2024-06-13T05:05:04Z
2024-06-13 07:10:04,17.6,15,1013.2,SSE,155,1.6,4.8,85,1.0,,,1.0,163,0,n/a,2024-06-13T05:10:04Z
2024-06-13 07:15:04,17.7,15.3,1013.2,SSE,155,0,3.2,86,1.0,,,1.0,93,0,n/a,2024-06-13T05:15:04Z
2024-06-13 07:20:04,17.8,15.2,1013.2,SSE,155,3.2,4.8,85,0.5,,,1.0,67,0,n/a,2024-06-13T05:20:04Z
2024-06-13 07:25:04,17.8,15.2,1013.2,SSE,148,1.6,6.4,85,0.2,,,1.0,53,0,n/a,2024-06-13T05:25:04Z
2024-06-13 07:30:04,17.8,15.2,1013.5,SSE,148,0,3.2,85,0.0,,,1.0,83,0,n/a,2024-06-13T05:30:04Z
2024-06-13 07:35:05,17.9,15.3,1013.2,SSE,148,0,4.8,85,0.0,,,1.0,137,0,n/a,2024-06-13T05:35:05Z
2024-06-13 07:40:05,18,15.4,1013.2,SSE,148,3.2,4.8,85,0.0,,,1.0,114,0,n/a,2024-06-13T05:40:05Z
2024-06-13 07:45:05,18.2,15.6,1013.2,SSE,149,3.2,6.4,85,0.0,,,1.0,109,0,n/a,2024-06-13T05:45:05Z
2024-06-13 07:50:05,18.2,15.4,1013.5,SSE,149,1.6,6.4,84,0.0,,,1.0,72,0,n/a,2024-06-13T05:50:05Z
2024-06-13 07:55:05,18.3,15.7,1013.2,SSE,148,3.2,4.8,85,0.0,,,1.0,84,0,n/a,2024-06-13T05:55:05Z
2024-06-13 08:00:05,18.4,16,1013.2,SSE,148,4.8,6.4,86,0.0,,,1.0,248,0.5,n/a,2024-06-13T06:00:05Z
2024-06-13 08:05:05,18.7,16.2,1013.2,SSE,150,4.8,9.7,86,0.0,,,1.0,127,0.5,n/a,2024-06-13T06:05:05Z
2024-06-13 08:10:05,19.1,16.3,1013.2,SSE,159,9.7,11.3,84,0.0,,,1.0,519,0.6,n/a,2024-06-13T06:10:05Z
2024-06-13 08:15:05,19.3,16.2,1013.2,SSE,168,6.4,11.3,82,0.0,,,1.0,155,0.5,n/a,2024-06-13T06:15:05Z
2024-06-13 08:20:05,19.5,16.1,1013.5,SSW,209,1.6,11.3,81,0.0,,,1.0,120,0.6,n/a,2024-06-13T06:20:05Z
2024-06-13 08:25:05,19.6,15.6,1013.2,SSW,198,1.6,4.8,78,0.0,,,1.0,104,0.6,n/a,2024-06-13T06:25:05Z
2024-06-13 08:30:05,19.8,15.8,1013.5,South,191,1.6,4.8,78,0.0,,,1.0,478,1,n/a,2024-06-13T06:30:05Z
2024-06-13 08:35:05,19.9,16.1,1013.5,South,177,0,4.8,79,0.0,,,1.0,487,1.1,n/a,2024-06-13T06:35:05Z
2024-06-13 08:40:05,20.2,16.2,1013.5,SSE,159,8,12.9,78,0.0,,,1.0,503,1.2,n/a,2024-06-13T06:40:05Z
2024-06-13 08:45:05,20.4,15.8,1013.5,SW,226,6.4,14.5,75,0.0,,,1.0,515,1.3,n/a,2024-06-13T06:45:05Z
2024-06-13 08:50:05,20.7,15.7,1013.5,SSW,200,3.2,12.9,73,0.0,,,1.0,536,1.4,n/a,2024-06-13T06:50:05Z
2024-06-13 08:55:05,20.9,15.7,1013.5,SW,234,1.6,14.5,72,0.0,,,1.0,555,1.5,n/a,2024-06-13T06:55:05Z
2024-06-13 09:00:05,21,15.1,1013.5,South,190,8,14.5,69,0.0,,,1.0,555,1.6,n/a,2024-06-13T07:00:05Z
2024-06-13 09:05:05,21.1,15.2,1013.5,South,173,1.6,8,69,0.0,,,1.0,570,1.7,n/a,2024-06-13T07:05:05Z
2024-06-13 09:10:05,21.6,15.6,1013.5,SW,221,1.6,11.3,69,0.0,,,1.0,573,1.7,n/a,2024-06-13T07:10:05Z
2024-06-13 09:15:05,21.6,15.1,1013.5,SE,145,1.6,14.5,67,0.0,,,1.0,589,1.8,n/a,2024-06-13T07:15:05Z
2024-06-13 09:20:05,21.6,14.9,1013.5,SSE,166,8,14.5,66,0.0,,,1.0,617,1.9,n/a,2024-06-13T07:20:05Z
2024-06-13 09:25:06,21.3,14.7,1013.5,South,171,9.7,14.5,66,0.0,,,1.0,666,2.1,n/a,2024-06-13T07:25:06Z
2024-06-13 09:30:05,21.4,15.3,1013.5,West,275,3.2,11.3,68,0.0,,,1.0,654,2.1,n/a,2024-06-13T07:30:05Z
2024-06-13 09:35:05,21.7,15.5,1013.5,SSE,167,9.7,16.1,68,0.0,,,1.0,613,2.2,n/a,2024-06-13T07:35:05Z
2024-06-13 09:40:04,21.8,15.4,1013.5,SSE,159,6.4,14.5,67,0.0,,,1.0,717,2.3,n/a,2024-06-13T07:40:04Z
2024-06-13 09:45:04,21.9,15.7,1013.5,South,188,9.7,14.5,68,0.0,,,1.0,179,1.5,n/a,2024-06-13T07:45:04Z
2024-06-13 09:50:04,21.6,15.7,1013.5,SW,221,14.5,16.1,69,0.0,,,1.0,844,2.3,n/a,2024-06-13T07:50:04Z
2024-06-13 09:55:05,21.6,15.9,1013.5,WSW,243,9.7,16.1,70,0.0,,,1.0,336,1.9,n/a,2024-06-13T07:55:05Z
2024-06-13 10:00:04,21.8,15.8,1013.5,NNW,340,0,9.7,69,0.0,,,1.0,207,1.5,n/a,2024-06-13T08:00:04Z
2024-06-13 10:05:04,21.9,15.9,1013.2,SSW,207,0,6.4,69,0.0,,,1.0,209,1.5,n/a,2024-06-13T08:05:04Z
2024-06-13 10:10:04,21.7,15.7,1013.5,SW,214,0,12.9,69,0.0,,,1.0,269,1.8,n/a,2024-06-13T08:10:04Z
2024-06-13 10:15:04,21.9,15.5,1013.5,SW,218,4.8,11.3,67,0.0,,,1.0,657,2.8,n/a,2024-06-13T08:15:04Z
2024-06-13 10:20:04,22,15.3,1013.5,SSE,150,6.4,12.9,66,0.0,,,1.0,374,3.3,n/a,2024-06-13T08:20:04Z
2024-06-13 10:25:04,22,15.8,1013.5,South,173,3.2,12.9,68,0.0,,,1.0,654,3.1,n/a,2024-06-13T08:25:04Z
2024-06-13 10:30:04,21.8,15.8,1013.5,SSW,207,3.2,12.9,69,0.0,,,1.0,930,3.5,n/a,2024-06-13T08:30:04Z
2024-06-13 10:35:04,22.2,16.2,1013.5,SSW,205,4.8,9.7,69,0.0,,,1.0,907,3.6,n/a,2024-06-13T08:35:04Z
2024-06-13 10:40:04,22.6,15.6,1013.5,South,170,6.4,12.9,65,0.0,,,1.0,603,3,n/a,2024-06-13T08:40:04Z
2024-06-13 10:45:04,22.6,16.3,1013.5,SE,126,0,16.1,68,0.0,,,1.0,976,3.9,n/a,2024-06-13T08:45:04Z
2024-06-13 10:50:04,22.9,15.9,1013.5,SSW,202,6.4,11.3,65,0.0,,,1.0,489,2.7,n/a,2024-06-13T08:50:04Z
2024-06-13 10:55:04,22.7,16,1013.5,SSW,192,11.3,16.1,66,0.0,,,1.0,489,3.4,n/a,2024-06-13T08:55:04Z
2024-06-13 11:00:05,22.7,16.7,1013.2,SSW,202,4.8,9.7,69,0.0,,,1.0,949,2.9,n/a,2024-06-13T09:00:05Z
2024-06-13 11:05:05,22.9,16.9,1013.5,South,172,8,14.5,69,0.0,,,1.0,295,2.2,n/a,2024-06-13T09:05:05Z
2024-06-13 11:10:05,22.6,16.8,1013.5,SSW,207,6.4,12.9,70,0.0,,,1.0,341,3.2,n/a,2024-06-13T09:10:05Z
2024-06-13 11:15:05,22.3,16.8,1013.5,SSE,158,4.8,12.9,71,0.0,,,1.0,343,2,n/a,2024-06-13T09:15:05Z
2024-06-13 11:20:05,22.7,17.3,1013.5,SSW,195,4.8,11.3,72,0.0,,,1.0,1049,4.1,n/a,2024-06-13T09:20:05Z
2024-06-13 11:25:05,23.1,17.6,1013.5,NE,44,3.2,14.5,71,0.0,,,1.0,1155,4.7,n/a,2024-06-13T09:25:05Z
2024-06-13 11:30:05,23.4,17.3,1013.5,WSW,237,3.2,6.4,69,0.0,,,1.0,415,2.6,n/a,2024-06-13T09:30:05Z
2024-06-13 11:35:05,23.3,17.5,1013.5,WNW,284,0,8,70,0.0,,,1.0,401,4.6,n/a,2024-06-13T09:35:05Z
2024-06-13 11:40:05,23.3,17.7,1013.5,NNE,17,4.8,12.9,71,0.0,,,1.0,260,1.4,n/a,2024-06-13T09:40:05Z
2024-06-13 11:45:05,23.2,17.6,1013.5,SW,220,1.6,6.4,71,0.0,,,1.0,297,1.9,n/a,2024-06-13T09:45:05Z
2024-06-13 11:50:05,23.1,17.7,1013.5,SSW,203,1.6,11.3,72,0.0,,,1.0,420,4.4,n/a,2024-06-13T09:50:05Z
2024-06-13 11:55:05,23.2,17.3,1013.5,South,182,3.2,6.4,70,0.0,,,1.0,469,3.7,n/a,2024-06-13T09:55:05Z
2024-06-13 12:00:05,23.3,17.4,1013.5,SW,227,3.2,12.9,70,0.0,,,1.0,225,2.2,n/a,2024-06-13T10:00:05Z
2024-06-13 12:05:04,23.1,17.5,1013.5,WNW,302,1.6,9.7,71,0.0,,,1.0,1116,2.2,n/a,2024-06-13T10:05:04Z
2024-06-13 12:10:04,22.9,17.6,1013.5,NNW,336,6.4,9.7,72,0.0,,,1.0,287,3.4,n/a,2024-06-13T10:10:04Z
2024-06-13 12:15:04,23.1,17.5,1013.5,ENE,73,4.8,6.4,71,0.0,,,1.0,265,3.7,n/a,2024-06-13T10:15:04Z
2024-06-13 12:20:04,23.2,17.3,1013.5,NW,306,3.2,11.3,70,0.0,,,1.0,504,3.1,n/a,2024-06-13T10:20:04Z
2024-06-13 12:25:04,23.2,17.2,1013.5,NNW,329,1.6,12.9,69,0.0,,,1.0,480,5,n/a,2024-06-13T10:25:04Z
2024-06-13 12:30:04,23.6,17.5,1013.5,NNE,13,0,8,69,0.0,,,1.0,1037,5.2,n/a,2024-06-13T10:30:04Z
2024-06-13 12:35:04,23.6,17.1,1013.5,NE,47,4.8,8,67,0.0,,,1.0,1162,2.7,n/a,2024-06-13T10:35:04Z
2024-06-13 12:40:04,23.7,17.2,1013.5,SSW,193,1.6,12.9,67,0.0,,,1.0,1093,5.4,n/a,2024-06-13T10:40:04Z
2024-06-13 12:45:04,23.8,17,1013.5,SW,221,0,8,66,0.0,,,1.0,1183,5.2,n/a,2024-06-13T10:45:04Z
2024-06-13 12:50:04,23.9,17.1,1013.5,WSW,249,1.6,8,66,0.0,,,1.0,1183,4.6,n/a,2024-06-13T10:50:04Z
2024-06-13 12:55:04,23.8,17,1013.5,SSW,197,4.8,19.3,66,0.0,,,1.0,301,5.3,n/a,2024-06-13T10:55:04Z
2024-06-13 13:00:04,23.4,17.1,1013.5,ESE,107,3.2,17.7,68,0.0,,,1.0,1114,5.4,n/a,2024-06-13T11:00:04Z
2024-06-13 13:05:04,23.4,16.9,1013.5,SW,215,19.3,19.3,67,0.0,,,1.0,1027,5.4,n/a,2024-06-13T11:05:04Z
2024-06-13 13:10:04,23.3,16.6,1013.9,NW,325,1.6,19.3,66,0.0,,,1.0,1141,5.1,n/a,2024-06-13T11:10:04Z
2024-06-13 13:15:04,23.5,17,1013.9,NNE,15,1.6,11.3,67,0.0,,,1.0,1041,2.7,n/a,2024-06-13T11:15:04Z
2024-06-13 13:20:04,23.7,16.9,1013.9,ESE,114,3.2,14.5,66,0.0,,,1.0,1218,5.7,n/a,2024-06-13T11:20:04Z
2024-06-13 13:25:04,23.8,17.1,1013.9,NW,319,4.8,11.3,66,0.0,,,1.0,1097,2.6,n/a,2024-06-13T11:25:04Z
2024-06-13 13:30:04,23.8,17.5,1013.9,ENE,64,4.8,8,68,0.0,,,1.0,213,2.4,n/a,2024-06-13T11:30:04Z
2024-06-13 13:35:04,23.4,17.4,1013.9,WNW,298,0,8,69,0.0,,,1.0,327,3,n/a,2024-06-13T11:35:04Z
2024-06-13 13:40:04,23.6,17.7,1013.9,NE,55,0,9.7,70,0.0,,,1.0,1116,4.7,n/a,2024-06-13T11:40:04Z
2024-06-13 13:45:04,23.6,17.3,1013.9,ESE,111,4.8,14.5,68,0.0,,,1.0,294,2.8,n/a,2024-06-13T11:45:04Z
2024-06-13 13:50:04,23.3,17.1,1013.5,ENE,77,3.2,14.5,68,0.0,,,1.0,1123,2.4,n/a,2024-06-13T11:50:04Z
2024-06-13 13:55:04,23.2,17.1,1013.5,NW,317,1.6,16.1,69,0.0,,,1.0,1123,2.4,n/a,2024-06-13T11:55:04Z
2024-06-13 14:00:04,23.3,17.2,1013.5,NNE,14,4.8,12.9,69,0.0,,,1.0,1123,2.4,n/a,2024-06-13T12:00:04Z
2024-06-13 14:05:04,23,16.7,1013.5,NNE,22,6.4,16.1,68,0.0,,,1.0,246,2.6,n/a,2024-06-13T12:05:04Z
2024-06-13 14:10:05,22.6,16.6,1013.5,NE,44,4.8,14.5,69,0.0,,,1.0,348,2.5,n/a,2024-06-13T12:10:05Z
2024-06-13 14:15:05,22.7,16.2,1013.5,WSW,248,3.2,20.9,67,0.0,,,1.0,991,2.4,n/a,2024-06-13T12:15:05Z
2024-06-13 14:20:05,22.9,15.5,1013.5,WSW,246,4.8,11.3,63,0.0,,,1.0,935,4.7,n/a,2024-06-13T12:20:05Z
2024-06-13 14:25:05,23.2,15.4,1013.5,ENE,65,4.8,11.3,62,0.0,,,1.0,918,4.6,n/a,2024-06-13T12:25:05Z
2024-06-13 14:30:05,23.1,14.9,1013.5,SSW,204,12.9,17.7,60,0.0,,,1.0,914,4.6,n/a,2024-06-13T12:30:05Z
2024-06-13 14:35:05,23.2,14.7,1013.5,SW,221,4.8,16.1,59,0.0,,,1.0,891,4.4,n/a,2024-06-13T12:35:05Z
2024-06-13 14:40:05,23.4,14.9,1013.5,SE,140,6.4,12.9,59,0.0,,,1.0,874,4.4,n/a,2024-06-13T12:40:05Z
2024-06-13 14:45:05,23.6,14,1013.5,North,0,8,19.3,55,0.0,,,1.0,881,4.3,n/a,2024-06-13T12:45:05Z
2024-06-13 14:50:05,23.7,15.2,1013.5,NNW,344,6.4,22.5,59,0.0,,,1.0,891,4.2,n/a,2024-06-13T12:50:05Z
2024-06-13 14:55:05,23.6,15.3,1013.5,ESE,107,4.8,20.9,60,0.0,,,1.0,844,4,n/a,2024-06-13T12:55:05Z
2024-06-13 15:00:05,23.4,15.4,1013.9,SW,229,12.9,29,61,0.0,,,1.0,167,2.1,n/a,2024-06-13T13:00:05Z
2024-06-13 15:05:05,23.2,15.2,1013.9,SW,218,4.8,17.7,61,0.0,,,1.0,914,2.6,n/a,2024-06-13T13:05:05Z
2024-06-13 15:10:05,23.3,15.6,1013.9,NNE,15,3.2,12.9,62,0.0,,,1.0,844,3.8,n/a,2024-06-13T13:10:05Z
2024-06-13 15:15:05,23.4,15.9,1013.5,NW,322,3.2,16.1,63,0.0,,,1.0,828,3.8,n/a,2024-06-13T13:15:05Z
2024-06-13 15:20:05,23.5,15.8,1013.9,NNW,346,3.2,14.5,62,0.0,,,1.0,809,3.7,n/a,2024-06-13T13:20:05Z
2024-06-13 15:25:05,23.6,15.6,1013.9,East,86,6.4,12.9,61,0.0,,,1.0,812,3.6,n/a,2024-06-13T13:25:05Z
2024-06-13 15:30:05,23.6,14.8,1013.9,NE,40,3.2,16.1,58,0.0,,,1.0,802,3.5,n/a,2024-06-13T13:30:05Z
2024-06-13 15:35:05,23.3,15.1,1013.9,NNE,19,3.2,17.7,60,0.0,,,1.0,780,3.4,n/a,2024-06-13T13:35:05Z
2024-06-13 15:40:05,23.3,15.1,1013.9,NW,317,8,22.5,60,0.0,,,1.0,773,3.3,n/a,2024-06-13T13:40:05Z
2024-06-13 15:45:05,23.3,15.1,1014.2,NNE,13,6.4,19.3,60,0.0,,,1.0,773,3.2,n/a,2024-06-13T13:45:05Z
2024-06-13 15:50:05,23.4,14.6,1013.9,ENE,60,9.7,17.7,58,0.0,,,1.0,747,3.1,n/a,2024-06-13T13:50:05Z
2024-06-13 15:55:04,23.3,14.5,1014.2,NW,325,3.2,22.5,58,0.0,,,1.0,747,3,n/a,2024-06-13T13:55:04Z
2024-06-13 16:00:04,23.2,13.9,1013.9,WNW,294,8,17.7,56,0.0,,,1.0,733,2.9,n/a,2024-06-13T14:00:04Z
2024-06-13 16:05:04,23.1,13.8,1013.9,East,95,9.7,22.5,56,0.0,,,1.0,712,2.8,n/a,2024-06-13T14:05:04Z
2024-06-13 16:10:04,23.3,13.9,1013.9,ESE,118,11.3,14.5,56,0.0,,,1.0,700,2.7,n/a,2024-06-13T14:10:04Z
2024-06-13 16:15:04,23.2,13.3,1013.9,NE,40,6.4,22.5,54,0.0,,,1.0,698,2.6,n/a,2024-06-13T14:15:04Z
2024-06-13 16:20:04,23.2,13,1013.9,SSE,165,8,19.3,53,0.0,,,1.0,677,2.4,n/a,2024-06-13T14:20:04Z
2024-06-13 16:25:04,23.4,13.5,1013.9,WSW,258,1.6,11.3,54,0.0,,,1.0,671,2.3,n/a,2024-06-13T14:25:04Z
2024-06-13 16:30:04,23.4,13.6,1013.9,East,84,3.2,17.7,54,0.0,,,1.0,659,2.2,n/a,2024-06-13T14:30:04Z
2024-06-13 16:35:04,23.4,12.9,1013.9,West,276,3.2,17.7,52,0.0,,,1.0,640,2.1,n/a,2024-06-13T14:35:04Z
2024-06-13 16:40:04,23.6,11.9,1013.9,ESE,116,6.4,17.7,48,0.0,,,1.0,638,1.9,n/a,2024-06-13T14:40:04Z
2024-06-13 16:45:04,23.5,12.4,1013.9,South,186,4.8,17.7,50,0.0,,,1.0,619,1.8,n/a,2024-06-13T14:45:04Z
2024-06-13 16:50:04,23.6,11.6,1013.9,SSW,212,4.8,17.7,47,0.0,,,1.0,598,1.7,n/a,2024-06-13T14:50:04Z
2024-06-13 16:55:04,23.8,12.4,1013.9,ENE,69,1.6,12.9,49,0.0,,,1.0,587,1.7,n/a,2024-06-13T14:55:04Z
2024-06-13 17:00:04,23.8,12.7,1013.9,WSW,254,11.3,12.9,50,0.0,,,1.0,571,1.6,n/a,2024-06-13T15:00:04Z
2024-06-13 17:05:04,23.6,12.8,1013.9,NNE,22,4.8,11.3,51,0.0,,,1.0,559,1.5,n/a,2024-06-13T15:05:04Z
2024-06-13 17:10:04,23.2,12.8,1013.9,ENE,59,6.4,16.1,52,0.0,,,1.0,541,1.4,n/a,2024-06-13T15:10:04Z
2024-06-13 17:15:04,23.3,12.2,1013.9,NNE,30,6.4,17.7,50,0.0,,,1.0,526,1.3,n/a,2024-06-13T15:15:04Z
2024-06-13 17:20:04,23.3,12.6,1013.9,SW,226,22.5,22.5,51,0.0,,,1.0,508,1.3,n/a,2024-06-13T15:20:04Z
2024-06-13 17:25:04,23,12.9,1013.9,SE,138,8,22.5,53,0.0,,,1.0,499,1.2,n/a,2024-06-13T15:25:04Z
2024-06-13 17:30:04,22.8,13,1013.9,ESE,122,11.3,16.1,54,0.0,,,1.0,489,1.2,n/a,2024-06-13T15:30:04Z
2024-06-13 17:35:04,22.8,13.2,1013.9,West,262,14.5,14.5,55,0.0,,,1.0,475,1.2,n/a,2024-06-13T15:35:04Z
2024-06-13 17:40:05,22.7,13.4,1013.9,South,184,9.7,14.5,56,0.0,,,1.0,459,1.1,n/a,2024-06-13T15:40:05Z
2024-06-13 17:45:04,22.8,13.6,1013.9,West,260,4.8,12.9,56,0.0,,,1.0,441,1.1,n/a,2024-06-13T15:45:04Z
2024-06-13 17:50:04,22.8,13.2,1013.9,WNW,285,11.3,14.5,55,0.0,,,1.0,429,1,n/a,2024-06-13T15:50:04Z
2024-06-13 17:55:04,22.7,13.2,1013.9,NW,324,3.2,11.3,55,0.0,,,1.0,411,0.9,n/a,2024-06-13T15:55:04Z
2024-06-13 18:00:05,22.7,12.6,1013.9,SW,226,6.4,19.3,53,0.0,,,1.0,394,0.9,n/a,2024-06-13T16:00:05Z
2024-06-13 18:05:05,22.7,12.6,1013.9,SSW,195,3.2,16.1,53,0.0,,,1.0,381,0.8,n/a,2024-06-13T16:05:05Z
2024-06-13 18:10:05,22.6,12.5,1013.9,SW,233,4.8,14.5,53,0.0,,,1.0,366,0.8,n/a,2024-06-13T16:10:05Z
2024-06-13 18:15:05,22.4,12.3,1013.9,NE,37,0,20.9,53,0.0,,,1.0,352,0.7,n/a,2024-06-13T16:15:05Z
2024-06-13 18:20:05,22.4,12,1013.9,NE,45,3.2,11.3,52,0.0,,,1.0,330,0.7,n/a,2024-06-13T16:20:05Z
2024-06-13 18:25:05,22.4,12.1,1013.9,SSW,196,3.2,11.3,52,0.0,,,1.0,316,0.6,n/a,2024-06-13T16:25:05Z
2024-06-13 18:30:05,22.4,11.4,1013.5,WSW,246,6.4,12.9,50,0.0,,,1.0,301,0.6,n/a,2024-06-13T16:30:05Z
2024-06-13 18:35:05,22.4,10.8,1013.9,WNW,285,1.6,14.5,48,0.0,,,1.0,283,0.5,n/a,2024-06-13T16:35:05Z
2024-06-13 18:40:05,22.4,12.3,1013.9,NW,316,1.6,14.5,53,0.0,,,1.0,271,0.5,n/a,2024-06-13T16:40:05Z
2024-06-13 18:45:05,22.3,12.8,1013.9,NNE,19,4.8,11.3,55,0.0,,,1.0,257,0,n/a,2024-06-13T16:45:05Z
2024-06-13 18:50:05,22.2,12.7,1013.9,NNE,22,6.4,16.1,55,0.0,,,1.0,239,0,n/a,2024-06-13T16:50:05Z
2024-06-13 18:55:05,22.1,12.9,1013.9,SE,133,1.6,16.1,56,0.0,,,1.0,221,0,n/a,2024-06-13T16:55:05Z
2024-06-13 19:00:05,22,12.5,1013.9,NNE,17,3.2,22.5,55,0.0,,,1.0,202,0,n/a,2024-06-13T17:00:05Z
2024-06-13 19:05:05,22.1,12.8,1013.9,SE,140,0,8,56,0.0,,,1.0,185,0,n/a,2024-06-13T17:05:05Z
2024-06-13 19:10:05,22,13.1,1013.9,West,272,0,9.7,57,0.0,,,1.0,167,0,n/a,2024-06-13T17:10:05Z
2024-06-13 19:15:05,22.1,12.8,1013.9,SSW,213,3.2,9.7,56,0.0,,,1.0,151,0,n/a,2024-06-13T17:15:05Z
2024-06-13 19:20:05,22.1,12.8,1013.9,SW,225,1.6,9.7,56,0.0,,,1.0,134,0,n/a,2024-06-13T17:20:05Z
2024-06-13 19:25:04,21.8,12.6,1013.9,NW,319,3.2,6.4,56,0.0,,,1.0,118,0,n/a,2024-06-13T17:25:04Z
2024-06-13 19:30:04,21.7,12.7,1014.2,SSW,192,1.6,9.7,57,0.0,,,1.0,102,0,n/a,2024-06-13T17:30:04Z
2024-06-13 19:35:04,21.6,12.7,1014.2,East,80,1.6,9.7,57,0.0,,,1.0,88,0,n/a,2024-06-13T17:35:04Z
2024-06-13 19:40:04,21.6,12.6,1014.2,WSW,249,4.8,9.7,57,0.0,,,1.0,74,0,n/a,2024-06-13T17:40:04Z
2024-06-13 19:45:04,21.6,12.9,1014.2,NNW,341,1.6,6.4,58,0.0,,,1.0,44,0,n/a,2024-06-13T17:45:04Z
2024-06-13 19:50:04,21.5,12.8,1014.2,West,264,3.2,6.4,58,0.0,,,1.0,30,0,n/a,2024-06-13T17:50:04Z
2024-06-13 19:55:04,21.5,13.1,1014.2,WNW,295,0,6.4,59,0.0,,,1.0,28,0,n/a,2024-06-13T17:55:04Z
2024-06-13 20:00:04,21.4,13.1,1014.2,WNW,283,0,6.4,59,0.0,,,1.0,25,0,n/a,2024-06-13T18:00:04Z
2024-06-13 20:05:04,21.4,13.1,1014.2,West,271,1.6,9.7,59,0.0,,,1.0,23,0,n/a,2024-06-13T18:05:04Z
2024-06-13 20:10:04,21.4,13.1,1014.2,WSW,248,0,4.8,59,0.0,,,1.0,21,0,n/a,2024-06-13T18:10:04Z
2024-06-13 20:15:04,21.4,13,1014.2,SW,227,1.6,4.8,59,0.0,,,1.0,18,0,n/a,2024-06-13T18:15:04Z
2024-06-13 20:20:04,21.3,13.2,1014.6,WSW,253,1.6,3.2,60,0.0,,,1.0,16,0,n/a,2024-06-13T18:20:04Z
2024-06-13 20:25:04,21.3,13.2,1014.6,WSW,258,0,3.2,60,0.0,,,1.0,14,0,n/a,2024-06-13T18:25:04Z
2024-06-13 20:30:04,21.2,13.4,1014.6,WSW,257,0,1.6,61,0.0,,,1.0,12,0,n/a,2024-06-13T18:30:04Z
2024-06-13 20:35:05,21.1,13.4,1014.6,WSW,257,0,1.6,62,0.0,,,1.0,9,0,n/a,2024-06-13T18:35:05Z
2024-06-13 20:40:04,20.9,13.6,1014.6,WSW,254,0,3.2,63,0.0,,,1.0,7,0,n/a,2024-06-13T18:40:04Z
2024-06-13 20:45:04,20.9,13.6,1014.6,West,261,0,3.2,63,0.0,,,1.0,5,0,n/a,2024-06-13T18:45:04Z
2024-06-13 20:50:04,20.8,13.5,1014.6,WNW,289,0,1.6,63,0.0,,,1.0,0,0,n/a,2024-06-13T18:50:04Z
2024-06-13 20:55:04,20.8,13.4,1014.6,WNW,290,0,3.2,63,0.0,,,1.0,0,0,n/a,2024-06-13T18:55:04Z
2024-06-13 21:00:04,20.7,13.4,1014.6,WNW,290,0,1.6,63,0.0,,,1.0,0,0,n/a,2024-06-13T19:00:04Z
2024-06-13 21:05:04,20.7,13.6,1014.6,WNW,284,0,3.2,64,0.0,,,1.0,0,0,n/a,2024-06-13T19:05:04Z
2024-06-13 21:10:04,20.7,13.6,1014.6,WNW,293,0,4.8,64,0.0,,,1.0,0,0,n/a,2024-06-13T19:10:04Z
2024-06-13 21:15:04,20.6,13.5,1014.6,WNW,293,0,3.2,64,0.0,,,1.0,0,0,n/a,2024-06-13T19:15:04Z
2024-06-13 21:20:04,20.6,13.5,1014.6,WNW,293,0,1.6,64,0.0,,,1.0,0,0,n/a,2024-06-13T19:20:04Z
2024-06-13 21:25:04,20.6,13.5,1014.6,WNW,293,0,3.2,64,0.0,,,1.0,0,0,n/a,2024-06-13T19:25:04Z
2024-06-13 21:30:05,20.5,13.7,1014.6,WNW,291,0,1.6,65,0.0,,,1.0,0,0,n/a,2024-06-13T19:30:05Z
2024-06-13 21:35:04,20.4,13.6,1014.6,WNW,290,0,1.6,65,0.0,,,1.0,0,0,n/a,2024-06-13T19:35:04Z
2024-06-13 21:40:05,20.4,13.8,1014.9,WNW,290,0,1.6,66,0.0,,,1.0,0,0,n/a,2024-06-13T19:40:05Z
2024-06-13 21:45:05,20.4,13.8,1014.9,WNW,290,0,3.2,66,0.0,,,1.0,0,0,n/a,2024-06-13T19:45:05Z
2024-06-13 21:50:05,20.3,13.7,1014.9,WNW,290,0,1.6,66,0.0,,,1.0,0,0,n/a,2024-06-13T19:50:05Z
2024-06-13 21:55:05,20.3,13.9,1014.9,WNW,284,0,3.2,67,0.0,,,1.0,0,0,n/a,2024-06-13T19:55:05Z
2024-06-13 22:00:05,20.3,13.9,1014.9,WNW,284,0,1.6,67,0.0,,,1.0,0,0,n/a,2024-06-13T20:00:05Z
2024-06-13 22:05:05,20.2,13.9,1014.9,WNW,283,0,3.2,67,0.0,,,1.0,0,0,n/a,2024-06-13T20:05:05Z
2024-06-13 22:10:05,20.2,13.8,1015.2,WNW,283,0,1.6,67,0.0,,,1.0,0,0,n/a,2024-06-13T20:10:05Z
2024-06-13 22:15:05,20.2,13.8,1015.2,WNW,283,0,1.6,67,0.0,,,1.0,0,0,n/a,2024-06-13T20:15:05Z
2024-06-13 22:20:05,20.2,13.8,1015.2,WNW,284,0,1.6,67,0.0,,,1.0,0,0,n/a,2024-06-13T20:20:05Z